createdAt,value
2018-10-18T00:41:48.276Z,71.20
2018-10-18T00:42:49.074Z,98.00
2018-10-18T00:43:49.072Z,98.30
2018-10-18T00:44:49.053Z,103.50
2018-10-18T00:45:49.086Z,100.70
2018-10-18T00:46:49.071Z,95.40
2018-10-18T00:47:49.015Z,96.50
2018-10-18T00:48:49.017Z,100.00
2018-10-18T00:49:49.044Z,99.40
2018-10-18T00:50:49.137Z,98.00
2018-10-18T00:51:48.997Z,102.70
2018-10-18T00:52:48.999Z,97.30
2018-10-18T00:53:48.989Z,100.60
2018-10-18T00:54:48.999Z,99.80
2018-10-18T00:55:48.932Z,101.40
2018-10-18T00:56:49.174Z,95.10
2018-10-18T00:57:49.122Z,98.90
2018-10-18T00:58:49.096Z,101.10
2018-10-18T00:59:49.039Z,97.70
2018-10-18T01:00:49.090Z,99.10
2018-10-18T01:01:49.123Z,98.00
2018-10-18T01:02:49.100Z,101.20
2018-10-18T01:03:49.142Z,96.90
2018-10-18T01:04:49.095Z,98.10
2018-10-18T01:05:49.074Z,91.30
2018-10-18T01:06:49.022Z,95.20
2018-10-18T01:07:48.816Z,94.00
2018-10-18T01:08:48.825Z,91.20
2018-10-18T01:09:48.811Z,89.00
2018-10-18T01:10:48.774Z,86.30
2018-10-18T01:11:48.779Z,90.10
2018-10-18T01:12:48.770Z,86.10
2018-10-18T01:13:48.756Z,84.20
2018-10-18T01:14:48.744Z,84.80
2018-10-18T01:15:48.837Z,81.70
2018-10-18T01:16:48.727Z,86.50
2018-10-18T01:17:48.742Z,84.80
2018-10-18T01:18:48.691Z,86.80
2018-10-18T01:19:48.692Z,88.10
2018-10-18T01:20:48.680Z,84.80
2018-10-18T01:21:48.678Z,88.80
2018-10-18T01:22:48.635Z,88.30
2018-10-18T01:23:48.623Z,80.80
2018-10-18T01:24:48.677Z,90.30
2018-10-18T01:25:48.701Z,83.90
2018-10-18T01:26:48.615Z,84.10
2018-10-18T01:27:48.575Z,81.60
2018-10-18T01:28:48.607Z,87.30
2018-10-18T01:29:48.581Z,86.00
2018-10-18T01:30:48.568Z,89.10
2018-10-18T01:31:48.562Z,83.80
2018-10-18T01:32:48.554Z,85.10
2018-10-18T01:33:48.515Z,87.40
2018-10-18T01:34:48.566Z,86.70
2018-10-18T01:35:48.567Z,84.50
2018-10-18T01:36:48.504Z,84.30
2018-10-18T01:37:48.519Z,87.90
2018-10-18T01:38:48.524Z,83.50
2018-10-18T01:39:48.493Z,82.90
2018-10-18T01:40:48.434Z,83.00
2018-10-18T01:41:48.462Z,83.90
2018-10-18T01:42:48.481Z,84.40
2018-10-18T01:43:48.421Z,79.80
2018-10-18T01:44:48.468Z,85.40
2018-10-18T01:45:48.450Z,83.70
2018-10-18T01:46:48.397Z,81.90
2018-10-18T01:47:48.444Z,81.20
2018-10-18T01:48:48.467Z,80.60
2018-10-18T01:49:48.556Z,84.70
2018-10-18T01:50:48.516Z,87.00
2018-10-18T01:51:48.611Z,85.30
2018-10-18T01:52:48.587Z,83.40
2018-10-18T01:53:48.411Z,81.10
2018-10-18T01:54:48.492Z,81.90
2018-10-18T01:55:48.468Z,83.80
2018-10-18T01:56:48.454Z,79.40
2018-10-18T01:57:48.385Z,78.50
2018-10-18T01:58:48.250Z,84.60
2018-10-18T01:59:48.256Z,82.10
2018-10-18T02:00:48.319Z,80.20
2018-10-18T02:01:48.233Z,78.40
2018-10-18T02:02:48.242Z,79.50
2018-10-18T02:03:48.232Z,81.40
2018-10-18T02:04:48.188Z,82.60
2018-10-18T02:05:48.166Z,82.60
2018-10-18T02:06:48.204Z,88.50
2018-10-18T02:07:48.234Z,82.10
2018-10-18T02:08:48.164Z,80.00
2018-10-18T02:09:48.169Z,84.20
2018-10-18T02:10:48.122Z,80.70
2018-10-18T02:11:48.162Z,78.00
2018-10-18T02:12:48.105Z,76.60
2018-10-18T02:13:48.136Z,81.40
2018-10-18T02:14:48.086Z,81.00
2018-10-18T02:15:48.131Z,79.00
2018-10-18T02:16:48.069Z,78.10
2018-10-18T02:17:48.062Z,81.10
2018-10-18T02:18:48.067Z,78.50
2018-10-18T02:19:48.062Z,79.30
2018-10-18T02:20:48.002Z,75.70
2018-10-18T02:21:48.001Z,76.80
2018-10-18T02:22:48.027Z,75.30
2018-10-18T02:23:47.986Z,73.40
2018-10-18T02:24:47.963Z,76.30
2018-10-18T02:25:47.984Z,77.90
2018-10-18T02:26:47.987Z,76.20
2018-10-18T02:27:48.029Z,74.40
2018-10-18T02:28:47.945Z,74.70
2018-10-18T02:29:47.951Z,74.00
2018-10-18T02:30:47.908Z,72.70
2018-10-18T02:31:47.878Z,72.20
2018-10-18T02:32:47.894Z,71.70
2018-10-18T02:33:47.916Z,73.10
2018-10-18T02:34:47.904Z,70.40
2018-10-18T02:35:47.924Z,73.90
2018-10-18T02:36:47.822Z,71.10
2018-10-18T02:37:47.847Z,72.10
2018-10-18T02:38:47.852Z,70.30
2018-10-18T02:39:47.870Z,72.40
2018-10-18T02:40:47.816Z,73.10
2018-10-18T02:52:32.578Z,57.20
2018-10-18T02:53:33.532Z,70.70
2018-10-18T02:54:33.490Z,70.80
2018-10-18T02:55:33.476Z,69.80
2018-10-18T02:56:33.454Z,78.40
2018-10-18T02:57:33.463Z,73.70
2018-10-18T02:58:33.428Z,75.50
2018-10-18T02:59:33.452Z,76.10
2018-10-18T03:00:33.421Z,72.10
2018-10-18T03:01:33.406Z,70.00
2018-10-18T03:02:33.428Z,68.80
2018-10-18T03:03:33.374Z,66.80
2018-10-18T03:04:33.380Z,66.80
2018-10-18T03:05:33.390Z,70.10
2018-10-18T03:06:33.382Z,71.60
2018-10-18T03:07:33.360Z,68.90
2018-10-18T03:08:33.322Z,68.80
2018-10-18T03:09:33.347Z,67.20
2018-10-18T03:10:33.308Z,67.30
2018-10-18T03:11:33.287Z,66.10
2018-10-18T03:12:33.301Z,65.40
2018-10-18T03:13:33.266Z,65.00
2018-10-18T03:14:33.245Z,66.40
2018-10-18T03:15:33.251Z,64.00
2018-10-18T03:16:33.224Z,65.30
2018-10-18T03:17:33.241Z,63.00
2018-10-18T03:18:33.202Z,65.00
2018-10-18T03:19:33.225Z,62.40
2018-10-18T03:20:33.192Z,62.20
2018-10-18T03:21:33.169Z,67.60
2018-10-18T03:22:33.187Z,65.40
2018-10-18T03:23:33.149Z,66.10
2018-10-18T03:24:33.141Z,62.60
2018-10-18T03:25:33.152Z,65.30
2018-10-18T03:26:33.114Z,64.00
2018-10-18T03:27:33.130Z,63.60
2018-10-18T03:28:33.095Z,65.50
2018-10-18T03:29:33.091Z,65.90
2018-10-18T03:30:33.090Z,68.40
2018-10-18T03:31:33.076Z,64.60
2018-10-18T03:32:33.102Z,65.00
2018-10-18T03:33:33.053Z,66.60
2018-10-18T03:34:33.038Z,65.30
2018-10-18T03:35:33.023Z,65.30
2018-10-18T03:36:33.008Z,63.90
2018-10-18T03:37:33.016Z,64.60
2018-10-18T03:38:32.980Z,63.20
2018-10-18T03:39:32.983Z,65.10
2018-10-18T03:40:32.969Z,64.30
2018-10-18T03:41:33.068Z,62.80
2018-10-18T03:42:32.966Z,62.80
2018-10-18T03:43:32.956Z,61.20
2018-10-18T03:44:32.951Z,63.40
2018-10-18T03:45:32.902Z,61.60
2018-10-18T03:46:32.907Z,61.70
2018-10-18T03:47:32.882Z,59.60
2018-10-18T03:48:32.893Z,57.90
2018-10-18T03:49:32.879Z,58.90
2018-10-18T03:50:32.886Z,58.40
2018-10-18T03:51:32.845Z,58.00
2018-10-18T03:52:32.847Z,59.20
2018-10-18T03:53:32.846Z,57.30
2018-10-18T03:54:33.035Z,60.80
2018-10-18T03:55:32.831Z,61.90
2018-10-18T03:56:32.786Z,62.00
2018-10-18T03:57:32.773Z,61.00
2018-10-18T03:58:32.774Z,58.30
2018-10-18T03:59:32.831Z,58.90
2018-10-18T04:00:32.758Z,58.80
2018-10-18T04:01:32.734Z,58.10
2018-10-18T04:02:32.728Z,57.10
2018-10-18T04:03:32.710Z,58.90
2018-10-18T04:04:32.733Z,59.80
2018-10-18T04:05:32.702Z,59.70
2018-10-18T04:06:32.681Z,58.40
2018-10-18T04:07:32.667Z,60.00
2018-10-18T04:08:32.686Z,60.20
2018-10-18T04:09:32.654Z,60.60
2018-10-18T04:10:32.635Z,61.10
2018-10-18T04:11:32.640Z,58.60
2018-10-18T04:12:32.616Z,61.90
2018-10-18T04:13:32.609Z,58.90
2018-10-18T04:14:32.614Z,60.20
2018-10-18T04:15:32.596Z,58.60
2018-10-18T04:16:32.567Z,58.60
2018-10-18T04:17:32.562Z,59.80
2018-10-18T04:18:32.572Z,59.40
2018-10-18T04:19:32.552Z,58.00
2018-10-18T04:20:32.551Z,58.70
2018-10-18T04:21:32.517Z,58.00
2018-10-18T04:22:32.498Z,57.40
2018-10-18T04:23:32.486Z,57.60
2018-10-18T04:24:32.495Z,57.00
2018-10-18T04:25:32.523Z,58.30
2018-10-18T04:26:32.479Z,58.40
2018-10-18T04:27:32.455Z,57.60
2018-10-18T04:28:32.440Z,58.10
2018-10-18T04:29:32.450Z,58.30
2018-10-18T04:30:32.420Z,58.20
2018-10-18T04:31:32.437Z,58.00
2018-10-18T04:32:32.409Z,58.10
2018-10-18T04:33:32.378Z,57.20
2018-10-18T04:34:32.381Z,57.40
2018-10-18T04:35:32.355Z,56.50
2018-10-18T04:36:32.348Z,58.70
2018-10-18T04:37:32.427Z,56.10
2018-10-18T04:38:32.328Z,54.80
2018-10-18T04:39:32.343Z,58.60
2018-10-18T04:40:32.334Z,57.30
2018-10-18T04:41:32.314Z,60.20
2018-10-18T04:42:32.294Z,58.50
2018-10-18T04:43:32.290Z,57.10
2018-10-18T04:44:32.278Z,57.20
2018-10-18T04:45:32.258Z,57.70
2018-10-18T04:46:32.290Z,57.90
2018-10-18T04:47:32.266Z,56.30
2018-10-18T04:48:32.341Z,56.20
2018-10-18T04:49:32.235Z,58.10
2018-10-18T04:50:32.238Z,58.30
2018-10-18T04:51:32.202Z,58.00
2018-10-18T05:56:26.026Z,53.20
2018-10-18T05:57:26.966Z,53.60
2018-10-18T05:58:26.963Z,53.40
2018-10-18T05:59:26.947Z,52.70
2018-10-18T06:00:26.995Z,52.00
2018-10-18T06:01:26.970Z,53.30
2018-10-18T06:02:26.921Z,50.70
2018-10-18T06:03:26.919Z,52.70
2018-10-18T06:04:26.907Z,51.40
2018-10-18T06:05:26.912Z,53.70
2018-10-18T06:06:26.914Z,54.50
2018-10-18T06:07:26.918Z,54.60
2018-10-18T06:08:26.879Z,50.90
2018-10-18T06:09:26.892Z,50.40
2018-10-18T06:10:26.864Z,50.10
2018-10-18T06:11:26.849Z,49.60
2018-10-18T06:12:26.834Z,48.50
2018-10-18T06:13:26.829Z,49.50
2018-10-18T06:14:26.816Z,48.10
2018-10-18T06:15:26.825Z,48.50
2018-10-18T06:16:26.802Z,48.40
2018-10-18T06:17:26.838Z,48.60
2018-10-18T06:18:26.753Z,47.70
2018-10-18T06:19:26.745Z,48.00
2018-10-18T06:20:26.729Z,46.80
2018-10-18T06:21:26.729Z,49.60
2018-10-18T06:22:26.781Z,48.10
2018-10-18T06:23:26.837Z,47.00
2018-10-18T06:24:26.688Z,47.90
2018-10-18T06:25:26.704Z,47.60
2018-10-18T06:26:26.703Z,48.00
2018-10-18T06:27:26.693Z,47.50
2018-10-18T06:28:26.649Z,46.70
2018-10-18T06:29:26.660Z,47.40
2018-10-18T06:30:26.623Z,47.40
2018-10-18T06:31:26.624Z,45.90
2018-10-18T06:32:26.623Z,47.60
2018-10-18T06:33:26.585Z,46.40
2018-10-18T06:34:26.614Z,46.30
2018-10-18T06:35:26.561Z,45.70
2018-10-18T06:36:26.569Z,47.20
2018-10-18T06:37:26.718Z,46.40
2018-10-18T06:38:26.535Z,47.60
2018-10-18T06:39:26.527Z,46.70
2018-10-18T06:40:26.509Z,45.70
2018-10-18T06:41:26.521Z,45.20
2018-10-18T06:42:26.512Z,46.00
2018-10-18T06:43:26.499Z,45.70
2018-10-18T06:44:26.507Z,43.90
2018-10-18T06:45:26.467Z,45.30
2018-10-18T06:46:26.459Z,43.80
2018-10-18T06:47:26.889Z,44.80
2018-10-18T06:48:26.510Z,43.90
2018-10-18T06:49:26.507Z,45.30
2018-10-18T06:50:26.406Z,43.60
2018-10-18T06:51:26.415Z,44.80
2018-10-18T06:52:26.429Z,45.00
2018-10-18T06:53:27.254Z,45.00
2018-10-18T06:54:26.367Z,45.50
2018-10-18T06:55:26.346Z,45.00
2018-10-18T06:56:26.339Z,44.10
2018-10-18T06:57:26.328Z,46.30
2018-10-18T06:58:26.312Z,45.00
2018-10-18T06:59:26.331Z,44.80
2018-10-18T07:00:26.391Z,44.50
2018-10-18T07:01:26.346Z,43.30
2018-10-18T07:02:26.282Z,43.10
2018-10-18T07:03:26.256Z,43.40
2018-10-18T07:04:26.243Z,43.80
2018-10-18T07:05:26.243Z,44.40
2018-10-18T07:06:26.240Z,44.00
2018-10-18T07:07:26.270Z,43.30
2018-10-18T07:08:26.217Z,40.70
2018-10-18T07:09:26.209Z,42.90
2018-10-18T07:10:26.223Z,42.00
2018-10-18T07:11:26.181Z,42.20
2018-10-18T07:12:26.159Z,40.80
2018-10-18T07:13:26.144Z,42.70
2018-10-18T07:14:26.162Z,42.10
2018-10-18T07:15:26.159Z,40.10
2018-10-18T07:16:26.185Z,41.40
2018-10-18T07:17:26.165Z,42.60
2018-10-18T07:18:26.102Z,41.40
2018-10-18T07:19:26.089Z,40.40
2018-10-18T07:20:26.069Z,40.70
2018-10-18T07:21:26.069Z,39.50
2018-10-18T07:22:26.061Z,40.70
2018-10-18T07:23:26.054Z,40.30
2018-10-18T07:24:26.010Z,39.10
2018-10-18T07:25:26.048Z,37.20
2018-10-18T07:26:25.994Z,37.30
2018-10-18T07:27:26.014Z,35.80
2018-10-18T07:28:25.964Z,36.40
2018-10-18T07:29:25.983Z,36.30
2018-10-18T07:30:25.974Z,34.30
2018-10-18T07:31:25.971Z,35.80
2018-10-18T07:32:26.051Z,36.30
2018-10-18T07:33:25.934Z,36.40
2018-10-18T07:34:25.904Z,36.80
2018-10-18T07:35:25.892Z,36.60
2018-10-18T07:36:25.898Z,35.70
2018-10-18T07:37:25.937Z,35.30
2018-10-18T07:38:25.886Z,35.40
2018-10-18T07:39:25.849Z,35.40
2018-10-18T07:40:25.881Z,36.70
2018-10-18T07:41:25.893Z,35.90
2018-10-18T07:42:25.829Z,35.10
2018-10-18T07:43:25.880Z,35.40
2018-10-18T07:44:25.865Z,35.90
2018-10-18T07:45:25.856Z,35.10
2018-10-18T07:46:25.769Z,34.50
2018-10-18T07:47:25.784Z,33.60
2018-10-18T07:48:25.761Z,35.20
2018-10-18T07:49:25.746Z,35.30
2018-10-18T07:50:25.766Z,33.80
2018-10-18T07:51:25.750Z,33.20
2018-10-18T07:52:25.764Z,33.40
2018-10-18T07:53:25.757Z,34.20
2018-10-18T07:54:25.719Z,33.90
2018-10-18T07:55:25.712Z,33.80
2018-10-18T07:57:58.413Z,26.70
2018-10-18T07:58:59.377Z,28.20
2018-10-18T07:59:59.419Z,30.80
2018-10-18T08:00:59.374Z,29.70
2018-10-18T08:01:59.341Z,30.20
2018-10-18T08:02:59.371Z,29.40
2018-10-18T08:03:59.320Z,29.30
2018-10-18T08:04:59.300Z,29.60
2018-10-18T08:05:59.301Z,29.00
2018-10-18T08:06:59.295Z,28.40
2018-10-18T08:07:59.301Z,29.10
2018-10-18T08:08:59.255Z,28.10
2018-10-18T08:09:59.312Z,27.60
2018-10-18T08:10:59.232Z,27.80
2018-10-18T08:11:59.207Z,26.90
2018-10-18T08:12:59.274Z,25.70
2018-10-18T08:13:59.196Z,26.40
2018-10-18T08:14:59.173Z,24.90
2018-10-18T08:15:59.223Z,24.10
2018-10-18T08:16:59.206Z,24.50
2018-10-18T08:17:59.192Z,23.60
2018-10-18T08:18:59.238Z,22.20
2018-10-18T08:19:59.190Z,24.50
2018-10-18T08:20:59.169Z,22.90
2018-10-18T08:21:59.126Z,23.50
2018-10-18T08:22:59.111Z,22.60
2018-10-18T08:23:59.103Z,21.70
2018-10-18T08:24:59.133Z,21.70
2018-10-18T08:25:59.093Z,21.90
2018-10-18T08:26:59.069Z,21.30
2018-10-18T08:27:59.069Z,21.10
2018-10-18T08:28:59.081Z,21.90
2018-10-18T08:29:59.017Z,21.80
2018-10-18T08:30:59.024Z,20.60
2018-10-18T08:31:59.054Z,20.90
2018-10-18T08:32:59.012Z,21.10
2018-10-18T08:33:58.993Z,21.50
2018-10-18T08:34:59.051Z,21.20
2018-10-18T08:35:58.986Z,20.60
2018-10-18T08:36:59.035Z,21.40
2018-10-18T08:37:59.156Z,20.40
2018-10-18T08:38:59.071Z,20.10
2018-10-18T08:39:58.939Z,20.00
2018-10-18T08:40:58.941Z,19.90
2018-10-18T08:41:58.885Z,19.70
2018-10-18T08:42:58.891Z,18.60
2018-10-18T08:43:59.001Z,19.60
2018-10-18T08:44:58.857Z,18.50
2018-10-18T08:45:58.835Z,17.60
2018-10-18T08:46:58.848Z,18.10
2018-10-18T08:47:58.819Z,17.80
2018-10-18T08:48:58.855Z,17.70
2018-10-18T08:49:58.859Z,17.80
2018-10-18T08:50:58.814Z,17.60
2018-10-18T08:51:58.782Z,17.50
2018-10-18T08:52:58.780Z,16.80
2018-10-18T08:53:58.781Z,16.40
2018-10-18T08:54:58.796Z,16.30
2018-10-18T08:55:58.788Z,16.30
2018-10-18T08:56:58.733Z,16.90
2018-10-18T08:57:58.735Z,16.40
2018-10-18T08:58:58.777Z,16.20
2018-10-18T08:59:58.703Z,16.40
2018-10-18T09:00:58.696Z,16.10
2018-10-18T09:01:58.685Z,16.70
2018-10-18T09:02:58.662Z,15.40
2018-10-18T09:03:58.658Z,16.10
2018-10-18T09:04:58.644Z,15.80
2018-10-18T09:05:58.624Z,15.60
2018-10-18T09:06:58.682Z,16.00
2018-10-18T09:07:58.614Z,15.30
2018-10-18T09:08:58.642Z,14.30
2018-10-18T09:09:58.604Z,13.90
2018-10-18T09:10:58.575Z,13.80
2018-10-18T09:11:58.565Z,13.70
2018-10-18T09:12:58.651Z,13.90
2018-10-18T09:13:58.590Z,14.00
2018-10-18T09:14:58.547Z,14.30
2018-10-18T09:15:58.602Z,14.10
2018-10-18T09:16:58.567Z,13.60
2018-10-18T09:17:58.490Z,13.20
2018-10-18T09:18:58.543Z,12.80
2018-10-18T09:19:58.477Z,13.00
2018-10-18T09:20:58.453Z,13.40
2018-10-18T09:21:58.450Z,13.40
2018-10-18T09:22:58.435Z,12.40
2018-10-18T09:23:58.579Z,12.50
2018-10-18T09:24:58.444Z,12.80
2018-10-18T09:25:58.405Z,13.60
2018-10-18T09:26:58.394Z,12.60
2018-10-18T09:27:58.404Z,12.90
2018-10-18T09:28:58.378Z,14.00
2018-10-18T09:29:58.382Z,13.80
2018-10-18T09:30:58.363Z,13.20
2018-10-18T09:31:58.334Z,13.20
2018-10-18T09:32:58.340Z,12.70
2018-10-18T09:33:58.344Z,11.80
2018-10-18T09:34:58.323Z,12.20
2018-10-18T09:35:58.330Z,12.40
2018-10-18T09:36:58.299Z,12.30
2018-10-18T09:37:58.300Z,12.10
2018-10-18T09:38:58.255Z,12.40
2018-10-18T09:39:58.278Z,12.70
2018-10-18T09:40:58.244Z,12.40
2018-10-18T09:41:58.222Z,12.40
2018-10-18T09:42:58.307Z,13.30
2018-10-18T09:43:58.212Z,12.30
2018-10-18T09:44:58.300Z,13.60
2018-10-18T09:45:58.238Z,14.50
2018-10-18T09:46:58.191Z,14.50
2018-10-18T09:47:58.175Z,14.20
2018-10-18T09:48:58.167Z,13.80
2018-10-18T09:49:58.164Z,14.30
2018-10-18T09:50:58.179Z,14.10
2018-10-18T09:51:58.131Z,14.00
2018-10-18T09:52:58.184Z,13.90
2018-10-18T09:53:58.130Z,14.10
2018-10-18T09:54:58.115Z,14.20
2018-10-18T09:55:58.112Z,14.50
2018-10-18T09:56:58.082Z,12.70
2018-10-18T09:59:07.578Z,11.80
2018-10-18T10:00:11.137Z,13.10
2018-10-18T10:01:08.394Z,13.10
2018-10-18T10:02:08.258Z,13.40
2018-10-18T10:03:08.260Z,13.10
2018-10-18T10:04:08.236Z,13.80
2018-10-18T10:05:08.259Z,13.70
2018-10-18T10:06:08.219Z,14.40
2018-10-18T10:07:08.264Z,12.20
2018-10-18T10:08:08.199Z,13.20
2018-10-18T10:09:08.168Z,13.40
2018-10-18T10:10:08.188Z,12.60
2018-10-18T10:11:08.153Z,13.50
2018-10-18T10:12:08.149Z,13.40
2018-10-18T10:13:08.154Z,14.10
2018-10-18T10:14:08.164Z,13.60
2018-10-18T10:15:08.125Z,13.50
2018-10-18T10:16:08.106Z,13.80
2018-10-18T10:17:08.172Z,13.50
2018-10-18T10:18:08.135Z,13.50
2018-10-18T10:19:08.177Z,14.00
2018-10-18T10:20:08.078Z,13.60
2018-10-18T10:21:08.067Z,13.60
2018-10-18T10:22:08.041Z,15.10
2018-10-18T10:23:08.042Z,15.00
2018-10-18T10:24:08.006Z,14.60
2018-10-18T10:25:08.111Z,14.70
2018-10-18T10:26:07.986Z,15.10
2018-10-18T10:27:07.974Z,13.70
2018-10-18T10:28:07.953Z,14.20
2018-10-18T10:29:07.940Z,13.70
2018-10-18T10:30:08.007Z,13.90
2018-10-18T10:31:07.957Z,15.00
2018-10-18T10:32:07.921Z,14.80
2018-10-18T10:33:07.988Z,14.20
2018-10-18T10:34:07.892Z,14.50
2018-10-18T10:35:07.985Z,13.40
2018-10-18T10:36:07.880Z,13.70
2018-10-18T10:37:07.940Z,13.70
2018-10-18T10:38:07.845Z,13.40
2018-10-18T10:39:07.850Z,13.30
2018-10-18T10:40:07.916Z,12.80
2018-10-18T10:41:07.949Z,13.10
2018-10-18T10:42:07.857Z,13.20
2018-10-18T10:43:07.830Z,13.70
2018-10-18T10:44:07.804Z,14.30
2018-10-18T10:45:07.850Z,14.00
2018-10-18T10:46:07.877Z,13.70
2018-10-18T10:47:07.765Z,13.10
2018-10-18T10:48:07.857Z,12.80
2018-10-18T10:49:08.583Z,12.30
2018-10-18T10:50:07.784Z,13.20
2018-10-18T10:51:07.843Z,13.20
2018-10-18T10:52:07.808Z,13.00
2018-10-18T10:53:07.689Z,13.00
2018-10-18T10:54:07.819Z,12.10
2018-10-18T10:55:07.698Z,13.00
2018-10-18T10:56:07.683Z,12.60
2018-10-18T10:57:07.712Z,12.30
2018-10-18T10:58:07.945Z,12.40
2018-10-18T10:59:07.684Z,11.90
2018-10-18T11:00:08.604Z,12.10
2018-10-18T11:01:07.607Z,11.20
2018-10-18T11:02:07.710Z,11.10
2018-10-18T11:03:07.642Z,12.50
2018-10-18T11:04:07.577Z,12.40
2018-10-18T11:05:07.564Z,13.30
2018-10-18T11:06:07.709Z,12.80
2018-10-18T11:07:07.528Z,12.20
2018-10-18T11:08:07.561Z,12.50
2018-10-18T11:09:07.651Z,11.50
2018-10-18T11:10:07.498Z,12.50
2018-10-18T11:11:07.501Z,12.30
2018-10-18T11:12:07.627Z,12.40
2018-10-18T11:13:07.468Z,12.20
2018-10-18T11:14:07.562Z,12.30
2018-10-18T11:15:07.582Z,10.70
2018-10-18T11:16:07.459Z,10.80
2018-10-18T11:17:07.495Z,9.90
2018-10-18T11:18:07.437Z,9.40
2018-10-18T11:19:07.409Z,9.00
2018-10-18T11:20:07.468Z,8.50
2018-10-18T11:21:07.521Z,8.70
2018-10-18T11:22:07.368Z,8.80
2018-10-18T11:23:07.374Z,8.40
2018-10-18T11:24:07.464Z,8.90
2018-10-18T11:25:07.345Z,8.60
2018-10-18T11:26:07.435Z,8.00
2018-10-18T11:27:07.359Z,8.50
2018-10-18T11:28:07.327Z,8.00
2018-10-18T11:29:07.286Z,8.20
2018-10-18T11:30:07.371Z,8.00
2018-10-18T11:31:07.323Z,8.10
2018-10-18T11:32:07.313Z,8.20
2018-10-18T11:33:07.258Z,8.40
2018-10-18T11:34:07.260Z,8.70
2018-10-18T11:35:07.226Z,8.30
2018-10-18T11:36:07.318Z,9.10
2018-10-18T11:37:07.196Z,8.50
2018-10-18T11:38:07.229Z,8.20
2018-10-18T11:39:07.160Z,8.60
2018-10-18T11:40:07.192Z,8.30
2018-10-18T11:41:07.174Z,8.00
2018-10-18T11:42:07.152Z,8.00
2018-10-18T11:43:07.133Z,8.40
2018-10-18T11:44:07.235Z,7.90
2018-10-18T11:45:07.159Z,7.90
2018-10-18T11:46:07.103Z,8.10
2018-10-18T11:47:07.093Z,7.90
2018-10-18T11:48:07.161Z,8.00
2018-10-18T11:49:07.071Z,7.80
2018-10-18T11:50:07.078Z,7.90
2018-10-18T11:51:07.103Z,7.10
2018-10-18T11:52:07.168Z,7.30
2018-10-18T11:53:07.027Z,8.00
2018-10-18T11:54:07.060Z,7.80
2018-10-18T11:55:07.029Z,8.30
2018-10-18T11:56:07.053Z,7.70
2018-10-18T11:57:06.992Z,7.50
2018-10-18T11:58:06.979Z,6.80
2018-10-18T12:00:20.363Z,7.00
2018-10-18T12:01:21.446Z,7.00
2018-10-18T12:02:21.375Z,6.80
2018-10-18T12:03:21.338Z,7.10
2018-10-18T12:04:21.335Z,6.50
2018-10-18T12:05:21.317Z,6.50
2018-10-18T12:06:21.316Z,6.10
2018-10-18T12:07:21.294Z,5.60
2018-10-18T12:08:21.255Z,5.60
2018-10-18T12:09:21.237Z,6.50
2018-10-18T12:10:21.260Z,5.90
2018-10-18T12:11:21.232Z,7.20
2018-10-18T12:12:21.297Z,6.90
2018-10-18T12:13:21.198Z,7.10
2018-10-18T12:14:21.181Z,7.30
2018-10-18T12:15:21.218Z,6.90
2018-10-18T12:16:21.186Z,7.30
2018-10-18T12:17:21.194Z,7.30
2018-10-18T12:18:21.139Z,7.10
2018-10-18T12:19:21.145Z,6.30
2018-10-18T12:20:21.131Z,6.20
2018-10-18T12:21:21.151Z,6.10
2018-10-18T12:22:21.106Z,6.40
2018-10-18T12:23:21.108Z,5.80
2018-10-18T12:24:21.106Z,6.30
2018-10-18T12:25:21.069Z,5.70
2018-10-18T12:26:21.091Z,6.40
2018-10-18T12:27:21.089Z,5.90
2018-10-18T12:28:21.103Z,6.80
2018-10-18T12:29:21.019Z,7.20
2018-10-18T12:30:21.015Z,7.40
2018-10-18T12:31:21.035Z,7.90
2018-10-18T12:32:21.000Z,7.70
2018-10-18T12:33:20.999Z,6.80
2018-10-18T12:34:20.993Z,6.90
2018-10-18T12:35:20.955Z,6.80
2018-10-18T12:36:20.956Z,6.80
2018-10-18T12:37:21.022Z,6.30
2018-10-18T12:38:20.935Z,5.60
2018-10-18T12:39:20.959Z,5.40
2018-10-18T12:40:20.973Z,5.10
2018-10-18T12:41:21.138Z,4.90
2018-10-18T12:42:20.897Z,4.60
2018-10-18T12:43:20.871Z,4.50
2018-10-18T12:44:20.872Z,4.40
2018-10-18T12:45:20.908Z,4.80
2018-10-18T12:46:20.837Z,4.90
2018-10-18T12:47:20.863Z,5.10
2018-10-18T12:48:21.059Z,4.70
2018-10-18T12:49:20.835Z,4.40
2018-10-18T12:50:20.793Z,5.00
2018-10-18T12:51:20.820Z,5.40
2018-10-18T12:52:20.802Z,5.30
2018-10-18T12:53:20.761Z,5.90
2018-10-18T12:54:20.839Z,5.70
2018-10-18T12:55:20.778Z,5.60
2018-10-18T12:56:20.726Z,5.70
2018-10-18T12:57:20.726Z,6.00
2018-10-18T12:58:20.726Z,6.20
2018-10-18T12:59:20.718Z,5.40
2018-10-18T13:00:20.689Z,5.40
2018-10-18T13:01:21.398Z,5.80
2018-10-18T13:02:20.755Z,6.70
2018-10-18T13:03:20.664Z,7.20
2018-10-18T13:04:20.682Z,7.20
2018-10-18T13:05:20.621Z,7.20
2018-10-18T13:06:20.617Z,7.80
2018-10-18T13:07:20.638Z,8.20
2018-10-18T13:08:20.593Z,7.90
2018-10-18T13:09:20.599Z,7.60
2018-10-18T13:10:20.573Z,8.10
2018-10-18T13:11:20.561Z,8.90
2018-10-18T13:12:20.730Z,9.20
2018-10-18T13:13:20.540Z,10.90
2018-10-18T13:14:20.533Z,11.80
2018-10-18T13:15:20.561Z,12.50
2018-10-18T13:16:20.513Z,12.50
2018-10-18T13:17:20.531Z,12.60
2018-10-18T13:18:20.479Z,13.60
2018-10-18T13:19:20.478Z,12.60
2018-10-18T13:20:20.489Z,13.70
2018-10-18T13:21:20.475Z,14.30
2018-10-18T13:22:20.474Z,15.40
2018-10-18T13:23:20.433Z,15.50
2018-10-18T13:24:20.417Z,15.90
2018-10-18T13:25:20.519Z,16.50
2018-10-18T13:26:20.402Z,16.20
2018-10-18T13:27:20.415Z,16.00
2018-10-18T13:28:20.400Z,16.40
2018-10-18T13:29:20.407Z,16.40
2018-10-18T13:30:20.405Z,16.20
2018-10-18T13:31:20.368Z,16.00
2018-10-18T13:32:20.348Z,14.90
2018-10-18T13:33:20.345Z,14.70
2018-10-18T13:34:20.327Z,14.50
2018-10-18T13:35:20.328Z,14.70
2018-10-18T13:36:20.290Z,15.20
2018-10-18T13:37:20.302Z,15.00
2018-10-18T13:38:20.272Z,15.50
2018-10-18T13:39:20.303Z,15.20
2018-10-18T13:40:20.251Z,15.80
2018-10-18T13:41:20.238Z,15.10
2018-10-18T13:42:20.244Z,15.30
2018-10-18T13:43:20.246Z,14.70
2018-10-18T13:44:20.189Z,13.50
2018-10-18T13:45:20.219Z,14.10
2018-10-18T13:46:20.217Z,14.40
2018-10-18T13:47:20.182Z,14.60
2018-10-18T13:48:20.194Z,13.60
2018-10-18T13:49:20.158Z,14.70
2018-10-18T13:50:20.276Z,15.00
2018-10-18T13:51:20.118Z,14.30
2018-10-18T13:52:20.924Z,15.00
2018-10-18T13:53:20.091Z,15.50
2018-10-18T13:54:20.083Z,14.80
2018-10-18T13:55:20.078Z,14.40
2018-10-18T13:56:20.052Z,15.70
2018-10-18T13:57:20.066Z,15.00
2018-10-18T13:58:20.049Z,14.40
2018-10-18T13:59:20.118Z,15.00
2018-10-18T14:01:30.862Z,14.40
2018-10-18T14:02:31.884Z,15.00
2018-10-18T14:03:31.844Z,15.50
2018-10-18T14:04:31.829Z,15.40
2018-10-18T14:05:31.843Z,14.50
2018-10-18T14:06:31.809Z,15.30
2018-10-18T14:07:31.816Z,15.90
2018-10-18T14:08:31.904Z,15.90
2018-10-18T14:09:31.776Z,16.90
2018-10-18T14:10:31.780Z,15.70
2018-10-18T14:11:31.759Z,16.10
2018-10-18T14:12:31.759Z,16.80
2018-10-18T14:13:31.752Z,17.40
2018-10-18T14:14:31.775Z,16.40
2018-10-18T14:15:31.722Z,17.30
2018-10-18T14:16:31.704Z,16.90
2018-10-18T14:17:31.860Z,17.20
2018-10-18T14:18:31.703Z,16.30
2018-10-18T14:19:31.705Z,17.60
2018-10-18T14:20:31.664Z,16.70
2018-10-18T14:21:31.687Z,18.10
2018-10-18T14:22:31.667Z,17.60
2018-10-18T14:23:31.678Z,17.80
2018-10-18T14:24:31.670Z,16.70
2018-10-18T14:25:31.639Z,16.70
2018-10-18T14:26:31.598Z,17.20
2018-10-18T14:27:31.594Z,16.90
2018-10-18T14:28:31.624Z,17.60
2018-10-18T14:29:31.621Z,16.70
2018-10-18T14:30:31.778Z,16.50
2018-10-18T14:31:31.550Z,16.60
2018-10-18T14:32:31.541Z,17.20
2018-10-18T14:33:31.516Z,17.00
2018-10-18T14:34:31.508Z,16.80
2018-10-18T14:35:31.491Z,16.70
2018-10-18T14:36:31.488Z,16.90
2018-10-18T14:37:31.489Z,15.80
2018-10-18T14:38:31.548Z,16.90
2018-10-18T14:39:31.458Z,15.90
2018-10-18T14:40:31.437Z,16.80
2018-10-18T14:41:31.432Z,17.50
2018-10-18T14:42:31.435Z,16.90
2018-10-18T14:43:31.441Z,16.50
2018-10-18T14:44:31.536Z,16.70
2018-10-18T14:45:31.403Z,16.10
2018-10-18T14:46:31.372Z,16.80
2018-10-18T14:47:31.414Z,17.50
2018-10-18T14:48:31.383Z,15.60
2018-10-18T14:49:31.343Z,16.20
2018-10-18T14:50:31.542Z,15.80
2018-10-18T14:51:31.364Z,15.30
2018-10-18T14:52:31.339Z,15.10
2018-10-18T14:53:31.306Z,14.80
2018-10-18T14:54:31.290Z,14.70
2018-10-18T14:55:31.290Z,14.10
2018-10-18T14:56:31.259Z,13.80
2018-10-18T14:57:31.283Z,13.60